createdAt,value
2022-12-18T00:01:44.756Z,11.45
2022-12-18T00:04:22.435Z,12.33
2022-12-18T00:06:50.575Z,13.68
2022-12-18T00:09:18.316Z,13.00
2022-12-18T00:11:45.862Z,13.75
2022-12-18T00:14:14.331Z,16.30
2022-12-18T00:16:45.032Z,14.80
2022-12-18T00:19:14.191Z,13.88
2022-12-18T00:21:43.031Z,14.10
2022-12-18T00:24:11.743Z,13.13
2022-12-18T00:26:39.760Z,14.68
2022-12-18T00:29:11.078Z,15.93
2022-12-18T00:31:39.252Z,14.82
2022-12-18T00:34:07.122Z,16.40
2022-12-18T00:36:35.682Z,13.70
2022-12-18T00:39:05.519Z,14.50
2022-12-18T00:41:51.935Z,14.77
2022-12-18T00:44:19.798Z,14.90
2022-12-18T00:46:48.642Z,14.40
2022-12-18T00:49:19.973Z,14.20
2022-12-18T00:51:48.532Z,14.23
2022-12-18T00:54:16.826Z,14.80
2022-12-18T00:56:48.680Z,15.38
2022-12-18T00:59:18.654Z,14.60
2022-12-18T01:01:47.244Z,16.00
2022-12-18T01:04:15.464Z,14.82
2022-12-18T01:06:46.397Z,15.23
2022-12-18T01:09:13.831Z,14.95
2022-12-18T01:11:41.199Z,15.95
2022-12-18T01:14:09.010Z,14.98
2022-12-18T01:16:38.531Z,14.52
2022-12-18T01:19:06.196Z,14.73
2022-12-18T01:21:34.509Z,14.55
2022-12-18T01:24:05.658Z,12.68
2022-12-18T01:26:33.140Z,14.02
2022-12-18T01:29:00.791Z,13.32
2022-12-18T01:31:32.053Z,13.97
2022-12-18T01:34:02.431Z,14.98
2022-12-18T01:36:35.196Z,14.13
2022-12-18T01:39:05.539Z,12.35
2022-12-18T01:41:53.293Z,13.62
2022-12-18T01:44:56.864Z,13.23
2022-12-18T01:47:34.315Z,13.02
2022-12-18T01:50:08.884Z,13.80
2022-12-18T01:52:38.396Z,13.20
2022-12-18T01:55:06.539Z,13.57
2022-12-18T01:57:34.247Z,14.57
2022-12-18T02:00:08.262Z,13.73
2022-12-18T02:02:41.913Z,14.48
2022-12-18T02:05:11.815Z,14.45
2022-12-18T02:07:54.706Z,13.52
2022-12-18T02:10:27.150Z,14.07
2022-12-18T02:13:04.325Z,14.25
2022-12-18T02:15:39.415Z,13.60
2022-12-18T02:18:25.195Z,14.27
2022-12-18T02:21:14.203Z,13.02
2022-12-18T02:23:51.229Z,14.07
2022-12-18T02:26:38.856Z,13.27
2022-12-18T02:29:11.466Z,14.55
2022-12-18T02:31:46.831Z,14.23
2022-12-18T02:34:15.447Z,14.60
2022-12-18T02:36:44.715Z,14.23
2022-12-18T02:39:13.506Z,14.32
2022-12-18T02:41:42.731Z,14.10
2022-12-18T02:44:13.720Z,13.93
2022-12-18T02:46:45.235Z,14.73
2022-12-18T02:49:32.375Z,15.43
2022-12-18T02:52:22.707Z,14.27
2022-12-18T02:55:08.936Z,13.02
2022-12-18T02:58:02.726Z,13.68
2022-12-18T03:00:40.746Z,12.60
2022-12-18T03:03:13.021Z,13.70
2022-12-18T03:05:46.745Z,13.52
2022-12-18T03:08:28.613Z,14.90
2022-12-18T03:11:09.508Z,14.52
2022-12-18T03:13:47.486Z,13.85
2022-12-18T03:16:20.886Z,14.73
2022-12-18T03:19:19.121Z,14.85
2022-12-18T03:21:57.350Z,13.93
2022-12-18T03:24:27.434Z,13.38
2022-12-18T03:27:00.507Z,14.30
2022-12-18T03:29:33.914Z,14.80
2022-12-18T03:32:06.958Z,13.82
2022-12-18T03:34:36.170Z,11.57
2022-12-18T03:37:05.507Z,12.23
2022-12-18T03:39:33.705Z,12.57
2022-12-18T03:42:12.603Z,11.83
2022-12-18T03:44:55.581Z,11.30
2022-12-18T03:47:44.751Z,11.27
2022-12-18T03:50:18.235Z,10.68
2022-12-18T03:52:59.132Z,11.57
2022-12-18T03:55:31.497Z,10.63
2022-12-18T03:58:00.807Z,9.90
2022-12-18T04:00:32.086Z,10.93
2022-12-18T04:03:02.225Z,9.98
2022-12-18T04:05:31.268Z,10.50
2022-12-18T04:07:59.131Z,9.70
2022-12-18T04:10:28.779Z,9.80
2022-12-18T04:12:58.731Z,9.75
2022-12-18T04:15:26.322Z,9.40
2022-12-18T04:17:54.086Z,9.82
2022-12-18T04:20:22.241Z,9.23
2022-12-18T04:22:49.722Z,10.07
2022-12-18T04:25:19.413Z,8.52
2022-12-18T04:27:48.603Z,8.18
2022-12-18T04:30:16.246Z,8.13
2022-12-18T04:32:49.055Z,7.87
2022-12-18T04:35:20.519Z,8.38
2022-12-18T04:37:48.232Z,7.37
2022-12-18T04:40:16.136Z,7.87
2022-12-18T04:42:44.164Z,7.07
2022-12-18T04:45:11.888Z,7.50
2022-12-18T04:47:39.366Z,7.60
2022-12-18T04:50:07.428Z,6.93
2022-12-18T04:52:35.120Z,7.40
2022-12-18T04:55:02.568Z,7.62
2022-12-18T04:57:30.027Z,6.33
2022-12-18T04:59:57.798Z,7.05
2022-12-18T05:02:25.343Z,7.10
2022-12-18T05:04:52.960Z,7.37
2022-12-18T05:07:20.634Z,6.75
2022-12-18T05:09:48.203Z,7.73
2022-12-18T05:12:15.582Z,7.85
2022-12-18T05:14:43.246Z,7.45
2022-12-18T05:17:10.685Z,6.65
2022-12-18T05:19:38.154Z,7.37
2022-12-18T05:22:05.855Z,6.77
2022-12-18T05:24:33.377Z,6.75
2022-12-18T05:27:00.914Z,6.32
2022-12-18T05:29:28.839Z,6.68
2022-12-18T05:31:56.631Z,5.50
2022-12-18T05:34:24.041Z,5.43
2022-12-18T05:36:51.746Z,5.90
2022-12-18T05:39:19.119Z,5.95
2022-12-18T05:41:46.594Z,5.93
2022-12-18T05:44:14.615Z,6.32
2022-12-18T05:46:42.064Z,5.53
2022-12-18T05:49:10.233Z,5.90
2022-12-18T05:51:38.165Z,6.10
2022-12-18T05:54:06.581Z,6.15
2022-12-18T05:56:34.038Z,5.43
2022-12-18T05:59:01.977Z,5.10
2022-12-18T06:01:29.511Z,5.43
2022-12-18T06:03:57.334Z,5.32
2022-12-18T06:06:27.080Z,5.47
2022-12-18T06:08:55.591Z,4.72
2022-12-18T06:11:27.228Z,5.20
2022-12-18T06:13:59.093Z,6.20
2022-12-18T06:16:27.962Z,5.15
2022-12-18T06:19:02.882Z,5.97
2022-12-18T06:21:31.335Z,6.28
2022-12-18T06:23:59.825Z,6.17
2022-12-18T06:26:28.488Z,7.32
2022-12-18T06:28:56.886Z,6.55
2022-12-18T06:31:25.006Z,6.12
2022-12-18T06:33:52.738Z,6.43
2022-12-18T06:36:21.712Z,6.63
2022-12-18T06:38:49.183Z,7.20
2022-12-18T06:41:19.369Z,5.87
2022-12-18T06:43:47.156Z,6.68
2022-12-18T06:46:14.911Z,6.87
2022-12-18T06:48:42.809Z,6.80
2022-12-18T06:51:11.557Z,6.30
2022-12-18T06:53:39.346Z,6.05
2022-12-18T06:56:10.513Z,6.07
2022-12-18T06:58:39.926Z,6.28
2022-12-18T07:01:09.656Z,5.77
2022-12-18T07:03:39.036Z,5.53
2022-12-18T07:06:07.182Z,5.28
2022-12-18T07:08:35.823Z,5.55
2022-12-18T07:11:05.373Z,5.72
2022-12-18T07:13:33.041Z,6.37
2022-12-18T07:16:18.341Z,5.85
2022-12-18T07:18:48.715Z,5.62
2022-12-18T07:21:19.775Z,5.50
2022-12-18T07:23:49.214Z,7.18
2022-12-18T07:26:19.396Z,7.07
2022-12-18T07:28:46.882Z,6.75
2022-12-18T07:31:21.602Z,6.72
2022-12-18T07:33:50.717Z,7.15
2022-12-18T07:36:18.256Z,7.30
2022-12-18T07:38:48.409Z,6.10
2022-12-18T07:41:16.460Z,6.68
2022-12-18T07:43:44.502Z,7.12
2022-12-18T07:46:14.850Z,7.57
2022-12-18T07:48:46.263Z,6.78
2022-12-18T07:51:18.577Z,5.43
2022-12-18T07:53:46.862Z,6.68
2022-12-18T07:56:29.218Z,7.93
2022-12-18T07:58:58.040Z,6.40
2022-12-18T08:01:26.408Z,6.55
2022-12-18T08:03:54.265Z,8.37
2022-12-18T08:06:23.776Z,7.20
2022-12-18T08:08:53.507Z,7.70
2022-12-18T08:11:21.597Z,8.50
2022-12-18T08:13:49.473Z,10.10
2022-12-18T08:16:17.911Z,9.40
2022-12-18T08:18:45.863Z,11.23
2022-12-18T08:21:17.758Z,10.88
2022-12-18T08:23:46.115Z,12.40
2022-12-18T08:26:14.504Z,12.37
2022-12-18T08:28:41.977Z,13.43
2022-12-18T08:31:18.743Z,11.52
2022-12-18T08:33:49.823Z,13.43
2022-12-18T08:36:18.154Z,13.35
2022-12-18T08:38:46.531Z,12.37
2022-12-18T08:41:16.111Z,12.93
2022-12-18T08:44:02.837Z,13.55
2022-12-18T08:46:37.061Z,12.65
2022-12-18T08:49:04.835Z,12.75
2022-12-18T08:51:33.462Z,12.07
2022-12-18T08:54:01.125Z,13.10
2022-12-18T08:56:29.096Z,12.05
2022-12-18T08:58:57.704Z,13.85
2022-12-18T09:01:25.761Z,13.75
2022-12-18T09:03:53.352Z,13.23
2022-12-18T09:06:22.566Z,14.43
2022-12-18T09:08:49.966Z,14.75
2022-12-18T09:11:23.710Z,15.27
2022-12-18T09:13:52.618Z,14.75
2022-12-18T09:16:20.768Z,15.35
2022-12-18T09:18:48.775Z,15.23
2022-12-18T09:21:18.695Z,16.23
2022-12-18T09:23:56.315Z,15.07
2022-12-18T09:26:25.268Z,15.93
2022-12-18T09:28:52.890Z,16.27
2022-12-18T09:31:22.050Z,15.83
2022-12-18T09:33:49.890Z,14.82
2022-12-18T09:36:18.981Z,15.73
2022-12-18T09:38:46.639Z,16.90
2022-12-18T09:41:44.083Z,15.35
2022-12-18T09:44:31.036Z,15.70
2022-12-18T09:47:01.973Z,15.30
2022-12-18T09:49:32.033Z,15.82
2022-12-18T09:52:04.814Z,15.88
2022-12-18T09:54:45.317Z,14.50
2022-12-18T09:57:24.320Z,15.50
2022-12-18T10:00:05.147Z,15.32
2022-12-18T10:02:38.989Z,15.82
2022-12-18T10:05:11.464Z,15.60
2022-12-18T10:07:57.179Z,16.15
2022-12-18T10:10:56.119Z,14.53
2022-12-18T10:13:35.981Z,17.05
2022-12-18T10:16:27.861Z,15.07
2022-12-18T10:18:58.195Z,15.80
2022-12-18T10:22:04.114Z,14.85
2022-12-18T10:25:05.094Z,13.70
2022-12-18T10:27:33.054Z,15.77
2022-12-18T10:30:02.309Z,13.05
2022-12-18T10:32:31.202Z,10.18
2022-12-18T10:35:00.675Z,12.40
2022-12-18T10:37:30.617Z,11.43
2022-12-18T10:40:16.814Z,9.43
2022-12-18T10:42:48.474Z,11.20
2022-12-18T10:45:18.619Z,12.68
2022-12-18T10:47:47.968Z,15.05
2022-12-18T10:53:28.192Z,15.25
2022-12-18T10:55:58.522Z,15.10
2022-12-18T10:58:33.244Z,15.32
2022-12-18T11:01:07.071Z,15.85
2022-12-18T11:03:44.325Z,15.00
2022-12-18T11:06:22.651Z,14.70
2022-12-18T11:09:13.307Z,15.82
2022-12-18T11:11:50.143Z,15.85
2022-12-18T11:14:34.774Z,14.10
2022-12-18T11:17:25.270Z,15.73
2022-12-18T11:19:55.153Z,14.55
2022-12-18T11:22:30.762Z,14.52
2022-12-18T11:28:06.071Z,16.00
2022-12-18T11:30:36.080Z,14.40
2022-12-18T11:33:11.587Z,15.15
2022-12-18T11:35:50.421Z,13.93
2022-12-18T11:38:28.350Z,15.35
2022-12-18T11:41:04.912Z,13.85
2022-12-18T11:43:38.321Z,12.83
2022-12-18T11:46:13.490Z,12.43
2022-12-18T11:48:59.080Z,12.30
2022-12-18T11:51:34.805Z,13.50
2022-12-18T11:54:18.476Z,13.68
2022-12-18T11:56:48.077Z,12.83
2022-12-18T11:59:26.781Z,12.57
2022-12-18T12:02:01.093Z,13.32
2022-12-18T12:04:47.796Z,13.25
2022-12-18T12:07:27.553Z,13.27
2022-12-18T12:10:13.684Z,13.07
2022-12-18T12:12:56.918Z,13.40
2022-12-18T12:15:44.434Z,15.60
2022-12-18T12:18:42.788Z,14.45
2022-12-18T12:21:35.858Z,14.30
2022-12-18T12:24:25.233Z,15.23
2022-12-18T12:27:12.242Z,15.10
2022-12-18T12:30:01.514Z,12.95
2022-12-18T12:32:53.561Z,13.98
2022-12-18T12:35:39.997Z,14.65
2022-12-18T12:38:25.274Z,14.40
2022-12-18T12:41:03.186Z,20.70
2022-12-18T12:43:50.497Z,17.87
2022-12-18T12:46:20.878Z,16.50
2022-12-18T12:49:12.505Z,21.25
2022-12-18T12:51:42.998Z,17.10
2022-12-18T12:54:21.183Z,18.35
2022-12-18T12:56:56.427Z,16.17
2022-12-18T12:59:47.499Z,17.83
2022-12-18T13:02:39.625Z,15.98
2022-12-18T13:05:24.679Z,15.73
2022-12-18T13:07:58.602Z,15.25
2022-12-18T13:10:33.221Z,14.77
2022-12-18T13:13:09.209Z,16.00
2022-12-18T13:15:42.639Z,15.82
2022-12-18T13:18:10.465Z,16.10
2022-12-18T13:20:50.720Z,16.45
2022-12-18T13:23:24.389Z,15.88
2022-12-18T13:25:54.518Z,16.80
2022-12-18T13:28:34.732Z,17.25
2022-12-18T13:31:03.300Z,16.33
2022-12-18T13:33:30.735Z,15.88
2022-12-18T13:36:17.033Z,15.93
2022-12-18T13:38:45.691Z,16.98
2022-12-18T13:41:19.567Z,15.70
2022-12-18T13:43:48.598Z,16.17
2022-12-18T13:46:24.939Z,18.08
2022-12-18T13:49:36.955Z,17.23
2022-12-18T13:52:17.334Z,16.55
2022-12-18T13:54:50.286Z,15.98
2022-12-18T13:57:36.212Z,18.13
2022-12-18T14:00:33.704Z,16.83
2022-12-18T14:03:01.957Z,15.63
2022-12-18T14:05:35.990Z,16.65
2022-12-18T14:08:09.969Z,15.55
2022-12-18T14:10:48.344Z,16.47
2022-12-18T14:13:26.085Z,14.87
2022-12-18T14:15:54.887Z,16.15
2022-12-18T14:18:40.919Z,18.23
2022-12-18T14:21:19.038Z,18.52
2022-12-18T14:23:46.983Z,18.53
2022-12-18T14:26:22.099Z,18.92
2022-12-18T14:28:51.338Z,17.73
2022-12-18T14:31:26.985Z,18.55
2022-12-18T14:33:55.100Z,17.92
2022-12-18T14:36:25.686Z,17.50
2022-12-18T14:38:57.585Z,17.25
2022-12-18T14:41:25.956Z,14.48
2022-12-18T14:43:55.015Z,17.48
2022-12-18T14:46:28.464Z,17.02
2022-12-18T14:48:57.244Z,16.73
2022-12-18T14:51:27.118Z,15.90
2022-12-18T14:53:57.182Z,15.13
2022-12-18T14:56:31.116Z,18.20
2022-12-18T14:59:16.933Z,16.73
2022-12-18T15:01:48.760Z,14.47
2022-12-18T15:04:37.683Z,15.80
2022-12-18T15:07:14.898Z,15.60
2022-12-18T15:09:44.068Z,15.90
2022-12-18T15:12:37.506Z,15.23
2022-12-18T15:15:06.255Z,15.77
2022-12-18T15:17:33.971Z,14.80
2022-12-18T15:20:03.695Z,14.87
2022-12-18T15:22:35.111Z,15.93
2022-12-18T15:25:05.402Z,15.18
2022-12-18T15:27:38.993Z,15.80
2022-12-18T15:30:09.728Z,13.95
2022-12-18T15:32:38.236Z,15.02
2022-12-18T15:35:15.540Z,12.50
2022-12-18T15:37:43.760Z,12.43
2022-12-18T15:40:16.426Z,12.07
2022-12-18T15:43:04.478Z,11.40
2022-12-18T15:45:31.991Z,11.95
2022-12-18T15:48:00.404Z,11.80
2022-12-18T15:50:28.028Z,12.60
2022-12-18T15:52:56.571Z,12.50
2022-12-18T15:55:43.898Z,14.23
2022-12-18T15:58:12.858Z,11.48
2022-12-18T16:00:42.284Z,12.15
2022-12-18T16:03:10.789Z,11.82
2022-12-18T16:05:38.632Z,11.90
2022-12-18T16:08:06.196Z,11.93
2022-12-18T16:10:34.051Z,11.38
2022-12-18T16:13:01.513Z,10.48
2022-12-18T16:15:29.045Z,11.43
2022-12-18T16:17:56.823Z,10.97
2022-12-18T16:20:24.415Z,10.23
2022-12-18T16:22:52.136Z,9.98
2022-12-18T16:25:29.596Z,10.63
2022-12-18T16:27:57.283Z,10.55
2022-12-18T16:30:33.061Z,10.73
2022-12-18T16:33:07.497Z,11.23
2022-12-18T16:35:38.025Z,10.98
2022-12-18T16:38:05.614Z,10.88
2022-12-18T16:40:33.909Z,12.50
2022-12-18T16:43:01.679Z,10.93
2022-12-18T16:45:34.098Z,11.15
2022-12-18T16:48:01.900Z,10.85
2022-12-18T16:50:29.351Z,12.02
2022-12-18T16:52:56.971Z,12.10
2022-12-18T16:55:24.751Z,12.77
2022-12-18T16:57:52.602Z,12.23
2022-12-18T17:00:20.235Z,13.43
2022-12-18T17:02:48.471Z,12.63
2022-12-18T17:05:16.119Z,13.20
2022-12-18T17:07:46.649Z,13.93
2022-12-18T17:10:14.560Z,13.90
2022-12-18T17:12:42.900Z,15.20
2022-12-18T17:15:11.566Z,15.05
2022-12-18T17:17:39.317Z,15.77
2022-12-18T17:20:07.819Z,14.10
2022-12-18T17:22:35.414Z,13.77
2022-12-18T17:25:03.570Z,15.48
2022-12-18T17:27:31.043Z,15.68
2022-12-18T17:29:58.514Z,14.48
2022-12-18T17:32:26.241Z,13.47
2022-12-18T17:34:53.635Z,13.62
2022-12-18T17:37:21.248Z,14.70
2022-12-18T17:39:49.527Z,14.48
2022-12-18T17:42:17.037Z,13.98
2022-12-18T17:44:45.077Z,13.67
2022-12-18T17:47:13.835Z,13.90
2022-12-18T17:49:41.456Z,13.93
2022-12-18T17:52:09.348Z,13.73
2022-12-18T17:54:39.852Z,15.25
2022-12-18T17:57:07.799Z,14.37
2022-12-18T17:59:35.316Z,15.10
2022-12-18T18:02:03.325Z,16.02
2022-12-18T18:04:31.195Z,15.30
2022-12-18T18:06:58.741Z,15.82
2022-12-18T18:09:26.332Z,15.83
2022-12-18T18:12:13.014Z,16.35
2022-12-18T18:14:40.782Z,14.77
2022-12-18T18:17:08.823Z,16.30
2022-12-18T18:19:36.520Z,15.43
2022-12-18T18:22:04.242Z,16.70
2022-12-18T18:24:33.258Z,16.25
2022-12-18T18:27:00.777Z,15.52
2022-12-18T18:29:32.028Z,17.62
2022-12-18T18:32:00.156Z,16.33
2022-12-18T18:34:30.423Z,17.40
2022-12-18T18:36:57.928Z,18.12
2022-12-18T18:39:25.941Z,17.30
2022-12-18T18:41:53.648Z,16.30
2022-12-18T18:44:25.982Z,16.15
2022-12-18T18:46:58.354Z,14.93
2022-12-18T18:49:27.685Z,14.82
2022-12-18T18:51:57.356Z,13.82
2022-12-18T18:54:25.869Z,13.75
2022-12-18T18:57:19.381Z,13.15
2022-12-18T18:59:41.667Z,12.00
2022-12-18T19:02:12.765Z,12.52
2022-12-18T19:04:45.682Z,10.65
2022-12-18T19:07:26.152Z,11.02
2022-12-18T19:10:04.388Z,9.50
2022-12-18T19:12:53.261Z,8.23
2022-12-18T19:15:22.298Z,8.90
2022-12-18T19:17:50.552Z,8.00
2022-12-18T19:20:18.859Z,7.70
2022-12-18T19:22:55.155Z,7.85
2022-12-18T19:25:28.368Z,7.60
2022-12-18T19:28:09.981Z,7.40
2022-12-18T19:30:50.293Z,8.32
2022-12-18T19:33:41.850Z,9.88
2022-12-18T19:36:21.811Z,9.70
2022-12-18T19:38:50.996Z,9.00
2022-12-18T19:41:20.496Z,9.73
2022-12-18T19:43:49.249Z,10.07
2022-12-18T19:46:19.281Z,11.12
2022-12-18T19:48:47.678Z,11.30
2022-12-18T19:51:18.214Z,12.17
2022-12-18T19:53:46.186Z,11.00
2022-12-18T19:56:16.134Z,10.93
2022-12-18T19:58:45.123Z,12.23
2022-12-18T20:01:17.001Z,12.73
2022-12-18T20:03:51.144Z,12.53
2022-12-18T20:06:25.438Z,12.68
2022-12-18T20:08:59.443Z,13.02
2022-12-18T20:11:30.145Z,11.98
2022-12-18T20:13:58.307Z,12.13
2022-12-18T20:16:25.912Z,11.83
2022-12-18T20:18:54.429Z,12.52
2022-12-18T20:21:22.170Z,11.65
2022-12-18T20:23:50.395Z,10.88
2022-12-18T20:26:17.918Z,11.98
2022-12-18T20:28:45.784Z,10.83
2022-12-18T20:31:14.128Z,10.30
2022-12-18T20:33:42.587Z,10.75
2022-12-18T20:36:15.355Z,10.82
2022-12-18T20:38:44.016Z,11.05
2022-12-18T20:41:16.565Z,10.40
2022-12-18T20:43:45.033Z,11.82
2022-12-18T20:46:14.938Z,10.57
2022-12-18T20:48:43.310Z,11.95
2022-12-18T20:51:13.333Z,13.98
2022-12-18T20:53:41.981Z,12.83
2022-12-18T20:56:21.256Z,12.90
2022-12-18T20:58:50.448Z,12.07
2022-12-18T21:01:23.419Z,12.68
2022-12-18T21:03:51.886Z,12.73
2022-12-18T21:06:21.616Z,13.77
2022-12-18T21:08:49.662Z,12.23
2022-12-18T21:11:39.334Z,11.65
2022-12-18T21:14:11.950Z,12.23
2022-12-18T21:16:40.263Z,13.05
2022-12-18T21:19:07.844Z,13.17
2022-12-18T21:21:38.738Z,13.23
2022-12-18T21:24:07.739Z,14.02
2022-12-18T21:26:38.136Z,12.48
2022-12-18T21:29:11.979Z,13.50
2022-12-18T21:31:39.660Z,13.40
2022-12-18T21:34:08.181Z,13.00
2022-12-18T21:36:35.968Z,14.93
2022-12-18T21:39:03.497Z,15.45
2022-12-18T21:41:49.780Z,13.20
2022-12-18T21:44:20.271Z,14.97
2022-12-18T21:46:54.874Z,16.45
2022-12-18T21:49:24.927Z,15.95
2022-12-18T21:51:54.790Z,15.90
2022-12-18T21:54:22.391Z,16.58
2022-12-18T21:56:52.050Z,17.70
2022-12-18T21:59:41.669Z,17.20
2022-12-18T22:02:17.328Z,16.40
2022-12-18T22:04:46.072Z,16.27
2022-12-18T22:07:15.077Z,18.23
2022-12-18T22:09:42.964Z,19.27
2022-12-18T22:12:12.767Z,18.95
2022-12-18T22:14:40.247Z,16.30
2022-12-18T22:17:07.892Z,17.55
2022-12-18T22:19:42.708Z,17.30
2022-12-18T22:22:10.544Z,15.00
2022-12-18T22:24:38.319Z,16.27
2022-12-18T22:27:05.827Z,15.77
2022-12-18T22:29:51.794Z,14.93
2022-12-18T22:32:30.972Z,14.93
2022-12-18T22:35:05.801Z,13.88
2022-12-18T22:37:35.987Z,14.80
2022-12-18T22:40:07.368Z,13.02
2022-12-18T22:42:35.123Z,14.48
2022-12-18T22:45:02.947Z,14.17
2022-12-18T22:47:30.890Z,13.88
2022-12-18T22:49:58.546Z,14.43
2022-12-18T22:52:26.291Z,13.90
2022-12-18T22:54:54.359Z,16.40
2022-12-18T22:57:23.106Z,14.10
2022-12-18T22:59:51.548Z,13.62
2022-12-18T23:02:19.694Z,14.80
2022-12-18T23:04:47.728Z,13.73
2022-12-18T23:07:16.331Z,15.18
2022-12-18T23:09:44.864Z,16.10
2022-12-18T23:12:17.208Z,13.32
2022-12-18T23:14:45.510Z,13.35
2022-12-18T23:17:13.192Z,14.20
2022-12-18T23:19:47.143Z,14.35
2022-12-18T23:22:17.456Z,13.27
2022-12-18T23:24:44.877Z,15.25
2022-12-18T23:27:12.418Z,13.27
2022-12-18T23:29:40.848Z,12.77
2022-12-18T23:32:08.374Z,13.90
2022-12-18T23:34:35.812Z,13.60
2022-12-18T23:37:03.949Z,12.07
2022-12-18T23:39:31.719Z,14.20
2022-12-18T23:41:59.217Z,13.93
2022-12-18T23:44:26.914Z,14.18
2022-12-18T23:46:55.168Z,14.60
2022-12-18T23:49:23.429Z,13.30
2022-12-18T23:51:54.095Z,13.43
2022-12-18T23:54:29.325Z,14.38
2022-12-18T23:57:01.662Z,13.30
2022-12-18T23:59:29.141Z,12.90
